Time;durP1;ratioP1;P1;durP2;ratioP2;P2;SDS_P1;SDS_P2;PMS_P1;PMS_P2;Temp;Humidity;BMP_temperature;BMP_pressure;BME280_temperature;BME280_humidity;BME280_pressure;Samples;Min_cycle;Max_cycle;Signal;HPM_P1;HPM_P2
2023/07/05 00:01:13;;;;;;;;;;;;;;;;;;5043171;28;20266;-66
2023/07/05 00:03:39;;;;;;;;;;;;;;;;;;5049936;28;19921;-65
2023/07/05 00:06:05;;;;;;;;;;;;;;;;;;5050982;28;20356;-65
2023/07/05 00:08:31;;;;;;;;;;;;;;;;;;5049309;28;19921;-65
2023/07/05 00:10:57;;;;;;;;;;;;;;;;;;5047413;28;19929;-65
2023/07/05 00:13:23;;;;;;;;;;;;;;;;;;5049577;28;19925;-65
2023/07/05 00:15:49;;;;;;;;;;;;;;;;;;5051948;28;19963;-65
2023/07/05 00:18:15;;;;;;;;;;;;;;;;;;5052085;28;19921;-65
2023/07/05 00:20:41;;;;;;;;;;;;;;;;;;5051975;28;19921;-65
2023/07/05 00:23:06;;;;;;;;;;;;;;;;;;5050811;28;20400;-66
2023/07/05 00:25:32;;;;;;;;;;;;;;;;;;5051147;28;20366;-65
2023/07/05 00:27:58;;;;;;;;;;;;;;;;;;5047006;28;19925;-66
2023/07/05 00:30:24;;;;;;;;;;;;;;;;;;5050258;28;20628;-65
2023/07/05 00:32:50;;;;;;;;;;;;;;;;;;5050359;28;19960;-65
2023/07/05 00:35:16;;;;;;;;;;;;;;;;;;5049980;28;19998;-65
2023/07/05 00:37:42;;;;;;;;;;;;;;;;;;5034124;28;19925;-65
2023/07/05 00:40:08;;;;;;;;;;;;;;;;;;5050449;28;19928;-65
2023/07/05 00:42:33;;;;;;;;;;;;;;;;;;5049431;28;20350;-65
2023/07/05 00:44:59;;;;;;;;;;;;;;;;;;5049550;28;19967;-65
2023/07/05 00:47:25;;;;;;;;;;;;;;;;;;5051027;28;20266;-66
2023/07/05 00:49:51;;;;;;;;;;;;;;;;;;5051318;28;19927;-66
2023/07/05 00:52:17;;;;;;;;;;;;;;;;;;5034434;28;19990;-65
2023/07/05 00:54:43;;;;;;;;;;;;;;;;;;5048594;28;20293;-66
2023/07/05 00:57:09;;;;;;;;;;;;;;;;;;5047829;28;19924;-66
2023/07/05 00:59:35;;;;;;;;;;;;;;;;;;5048875;28;19999;-65
2023/07/05 01:02:01;;;;;;;;;;;;;;;;;;5047093;28;19925;-65
2023/07/05 01:04:27;;;;;;;;;;;;;;;;;;5049599;28;19927;-66
2023/07/05 01:06:53;;;;;;;;;;;;;;;;;;5049795;28;19933;-65
2023/07/05 01:09:19;;;;;;;;;;;;;;;;;;5046986;28;19991;-65
2023/07/05 01:11:47;;;;;;;;;;;;;;;;;;5051426;28;19928;-65
2023/07/05 01:14:12;;;;;;;;;;;;;;;;;;5052983;28;19924;-65
2023/07/05 01:16:38;;;;;;;;;;;;;;;;;;5034100;28;20636;-66
2023/07/05 01:19:05;;;;;;;;;;;;;;;;;;5054810;28;19925;-66
2023/07/05 01:21:31;;;;;;;;;;;;;;;;;;5053667;28;19944;-65
2023/07/05 01:23:57;;;;;;;;;;;;;;;;;;5055121;28;20290;-65
2023/07/05 01:26:24;;;;;;;;;;;;;;;;;;5055121;28;20302;-65
2023/07/05 01:28:49;;;;;;;;;;;;;;;;;;5053335;28;19943;-65
2023/07/05 01:31:15;;;;;;;;;;;;;;;;;;5055095;28;19925;-66
2023/07/05 01:33:41;;;;;;;;;;;;;;;;;;5053557;28;20294;-65
2023/07/05 01:36:07;;;;;;;;;;;;;;;;;;5054174;28;20382;-65
2023/07/05 01:38:33;;;;;;;;;;;;;;;;;;5054814;28;19924;-65
2023/07/05 01:40:59;;;;;;;;;;;;;;;;;;5053467;28;20301;-65
2023/07/05 01:43:25;;;;;;;;;;;;;;;;;;5054541;28;19928;-65
2023/07/05 01:45:51;;;;;;;;;;;;;;;;;;5051420;28;19937;-65
2023/07/05 01:48:17;;;;;;;;;;;;;;;;;;5050034;28;20018;-65
2023/07/05 01:50:43;;;;;;;;;;;;;;;;;;5052448;28;19924;-65
2023/07/05 01:53:08;;;;;;;;;;;;;;;;;;5038719;28;19925;-65
2023/07/05 01:55:34;;;;;;;;;;;;;;;;;;5039193;28;19979;-65
2023/07/05 01:58:00;;;;;;;;;;;;;;;;;;5053560;28;20406;-65
2023/07/05 02:00:26;;;;;;;;;;;;;;;;;;5052572;28;19927;-65
2023/07/05 02:02:52;;;;;;;;;;;;;;;;;;5050717;28;19929;-65
2023/07/05 02:05:18;;;;;;;;;;;;;;;;;;5051307;28;19924;-65
2023/07/05 02:07:44;;;;;;;;;;;;;;;;;;5052906;28;20452;-65
2023/07/05 02:10:10;;;;;;;;;;;;;;;;;;5051904;28;19924;-65
2023/07/05 02:12:36;;;;;;;;;;;;;;;;;;5049471;28;19928;-65
2023/07/05 02:15:02;;;;;;;;;;;;;;;;;;5050994;28;20054;-65
2023/07/05 02:17:28;;;;;;;;;;;;;;;;;;5051102;28;19928;-66
2023/07/05 02:19:54;;;;;;;;;;;;;;;;;;5050427;28;19924;-65
2023/07/05 02:22:20;;;;;;;;;;;;;;;;;;5052415;28;20008;-65
2023/07/05 02:24:46;;;;;;;;;;;;;;;;;;5051350;28;20285;-65
2023/07/05 02:27:12;;;;;;;;;;;;;;;;;;5051319;28;19928;-65
2023/07/05 02:29:37;;;;;;;;;;;;;;;;;;5050261;28;19960;-65
2023/07/05 02:32:03;;;;;;;;;;;;;;;;;;5048744;28;19931;-65
2023/07/05 02:34:29;;;;;;;;;;;;;;;;;;5049710;28;20378;-65
2023/07/05 02:36:55;;;;;;;;;;;;;;;;;;5050067;28;19921;-64
2023/07/05 02:39:21;;;;;;;;;;;;;;;;;;5048157;28;19925;-64
2023/07/05 02:41:47;;;;;;;;;;;;;;;;;;5047170;28;19929;-64
2023/07/05 02:44:13;;;;;;;;;;;;;;;;;;5043800;28;19925;-64
2023/07/05 02:46:39;;;;;;;;;;;;;;;;;;5042741;28;19925;-65
2023/07/05 02:49:05;;;;;;;;;;;;;;;;;;5051867;28;20745;-65
2023/07/05 02:51:33;;;;;;;;;;;;;;;;;;5051755;28;20389;-64
2023/07/05 02:53:59;;;;;;;;;;;;;;;;;;5035167;28;19921;-65
2023/07/05 02:56:25;;;;;;;;;;;;;;;;;;5049964;28;20393;-64
2023/07/05 02:58:51;;;;;;;;;;;;;;;;;;5050497;28;20460;-64
2023/07/05 03:01:18;;;;;;;;;;;;;;;;;;5051005;28;19925;-64
2023/07/05 03:03:43;;;;;;;;;;;;;;;;;;5049378;28;19921;-64
2023/07/05 03:06:09;;;;;;;;;;;;;;;;;;5048204;28;19933;-64
2023/07/05 03:08:35;;;;;;;;;;;;;;;;;;5038822;28;19924;-63
2023/07/05 03:11:01;;;;;;;;;;;;;;;;;;5048501;28;19932;-63
2023/07/05 03:13:27;;;;;;;;;;;;;;;;;;5050696;28;19921;-63
2023/07/05 03:15:53;;;;;;;;;;;;;;;;;;5046473;28;19967;-63
2023/07/05 03:18:19;;;;;;;;;;;;;;;;;;5050834;28;19925;-63
2023/07/05 03:20:45;;;;;;;;;;;;;;;;;;5048466;28;19924;-63
2023/07/05 03:23:11;;;;;;;;;;;;;;;;;;5050546;28;20547;-62
2023/07/05 03:25:37;;;;;;;;;;;;;;;;;;5051992;28;19932;-62
2023/07/05 03:28:03;;;;;;;;;;;;;;;;;;5050511;28;19929;-62
2023/07/05 03:30:29;;;;;;;;;;;;;;;;;;5046316;28;19964;-62
2023/07/05 03:32:55;;;;;;;;;;;;;;;;;;5049363;28;19990;-62
2023/07/05 03:35:21;;;;;;;;;;;;;;;;;;5047771;28;19921;-62
2023/07/05 03:37:46;;;;;;;;;;;;;;;;;;5047329;28;19924;-62
2023/07/05 03:40:12;;;;;;;;;;;;;;;;;;5050620;28;20023;-62
2023/07/05 03:42:38;;;;;;;;;;;;;;;;;;5050591;28;20007;-62
2023/07/05 03:45:04;;;;;;;;;;;;;;;;;;5050858;28;20020;-62
2023/07/05 03:47:30;;;;;;;;;;;;;;;;;;5050038;28;20370;-62
2023/07/05 03:49:56;;;;;;;;;;;;;;;;;;5050139;28;19975;-62
2023/07/05 03:52:22;;;;;;;;;;;;;;;;;;5049175;28;20325;-62
2023/07/05 03:54:48;;;;;;;;;;;;;;;;;;5039738;28;19925;-62
2023/07/05 03:57:14;;;;;;;;;;;;;;;;;;5042875;28;19925;-62
2023/07/05 03:59:40;;;;;;;;;;;;;;;;;;5048867;28;20394;-62
2023/07/05 04:02:05;;;;;;;;;;;;;;;;;;5049586;28;20492;-62
2023/07/05 04:04:31;;;;;;;;;;;;;;;;;;5052284;28;19921;-62
2023/07/05 04:06:57;;;;;;;;;;;;;;;;;;5049760;28;20374;-62
2023/07/05 04:09:23;;;;;;;;;;;;;;;;;;5048785;28;19928;-62
2023/07/05 04:11:49;;;;;;;;;;;;;;;;;;5047739;28;19921;-62
2023/07/05 04:14:15;;;;;;;;;;;;;;;;;;5051406;28;20263;-62
2023/07/05 04:16:41;;;;;;;;;;;;;;;;;;5050811;28;19925;-62
2023/07/05 04:19:07;;;;;;;;;;;;;;;;;;5032062;28;19928;-62
2023/07/05 04:21:33;;;;;;;;;;;;;;;;;;5069130;22;19928;-64
2023/07/05 04:23:59;;;;;;;;;;;;;;;;;;5078921;28;19946;-64
2023/07/05 04:26:25;;;;;;;;;;;;;;;;;;5071461;28;19971;-64
2023/07/05 04:28:50;;;;;;;;;;;;;;;;;;5067037;28;19921;-64
2023/07/05 04:31:17;;;;;;;;;;;;;;;;;;5068172;28;19928;-64
2023/07/05 04:33:43;;;;;;;;;;;;;;;;;;5070028;28;19925;-64
2023/07/05 04:36:09;;;;;;;;;;;;;;;;;;5069684;28;20330;-64
2023/07/05 04:38:34;;;;;;;;;;;;;;;;;;5068929;28;20376;-64
2023/07/05 04:41:00;;;;;;;;;;;;;;;;;;5071318;28;20392;-64
2023/07/05 04:43:26;;;;;;;;;;;;;;;;;;5071149;28;20003;-64
2023/07/05 04:45:52;;;;;;;;;;;;;;;;;;5068732;28;19932;-64
2023/07/05 04:48:18;;;;;;;;;;;;;;;;;;5072934;28;19946;-64
2023/07/05 04:50:44;;;;;;;;;;;;;;;;;;5056592;28;20431;-64
2023/07/05 04:53:10;;;;;;;;;;;;;;;;;;5075207;28;19931;-64
2023/07/05 04:55:36;;;;;;;;;;;;;;;;;;5073600;28;19924;-64
2023/07/05 04:58:03;;;;;;;;;;;;;;;;;;5067678;28;20015;-64
2023/07/05 05:00:29;;;;;;;;;;;;;;;;;;5072867;28;19974;-64
2023/07/05 05:02:55;;;;;;;;;;;;;;;;;;5075167;28;19963;-64
2023/07/05 05:05:21;;;;;;;;;;;;;;;;;;5069061;28;19931;-64
2023/07/05 05:07:47;;;;;;;;;;;;;;;;;;5055710;28;19928;-64
2023/07/05 05:10:13;;;;;;;;;;;;;;;;;;5074957;28;20328;-64
2023/07/05 05:12:38;;;;;;;;;;;;;;;;;;5075411;28;19920;-64
2023/07/05 05:15:04;;;;;;;;;;;;;;;;;;5075485;28;19970;-64
2023/07/05 05:17:30;;;;;;;;;;;;;;;;;;5072014;28;19983;-64
2023/07/05 05:19:56;;;;;;;;;;;;;;;;;;5073717;28;20003;-64
2023/07/05 05:22:22;;;;;;;;;;;;;;;;;;5074478;28;19924;-64
2023/07/05 05:24:48;;;;;;;;;;;;;;;;;;5071526;28;19920;-64
2023/07/05 05:27:14;;;;;;;;;;;;;;;;;;5072532;28;20010;-64
2023/07/05 05:29:40;;;;;;;;;;;;;;;;;;5075412;28;19931;-64
2023/07/05 05:32:06;;;;;;;;;;;;;;;;;;5072772;28;20354;-64
2023/07/05 05:34:32;;;;;;;;;;;;;;;;;;5068840;28;19927;-64
2023/07/05 05:36:58;;;;;;;;;;;;;;;;;;5073037;28;19924;-65
2023/07/05 05:39:24;;;;;;;;;;;;;;;;;;5074134;28;19928;-64
2023/07/05 05:41:50;;;;;;;;;;;;;;;;;;5074809;28;20423;-64
2023/07/05 05:44:16;;;;;;;;;;;;;;;;;;5074428;28;19932;-64
2023/07/05 05:46:42;;;;;;;;;;;;;;;;;;5072101;28;19929;-64
2023/07/05 05:49:08;;;;;;;;;;;;;;;;;;5073415;28;19973;-65
2023/07/05 05:51:34;;;;;;;;;;;;;;;;;;5052261;28;19982;-65
2023/07/05 05:54:00;;;;;;;;;;;;;;;;;;5074529;28;19920;-64
2023/07/05 05:56:25;;;;;;;;;;;;;;;;;;5069851;28;19932;-64
2023/07/05 05:58:51;;;;;;;;;;;;;;;;;;5072200;28;20370;-64
2023/07/05 06:01:19;;;;;;;;;;;;;;;;;;5070448;28;19948;-65
2023/07/05 06:03:45;;;;;;;;;;;;;;;;;;5069083;28;19921;-64
2023/07/05 06:06:11;;;;;;;;;;;;;;;;;;5059275;28;19925;-64
2023/07/05 06:08:37;;;;;;;;;;;;;;;;;;5069005;28;19967;-64
2023/07/05 06:11:03;;;;;;;;;;;;;;;;;;5074271;28;20422;-65
2023/07/05 06:13:29;;;;;;;;;;;;;;;;;;5071573;28;19920;-64
2023/07/05 06:15:55;;;;;;;;;;;;;;;;;;5072148;28;20015;-64
2023/07/05 06:18:21;;;;;;;;;;;;;;;;;;5070175;28;19924;-65
2023/07/05 06:20:47;;;;;;;;;;;;;;;;;;5072081;28;19920;-64
2023/07/05 06:23:12;;;;;;;;;;;;;;;;;;5071524;28;19920;-64
2023/07/05 06:25:38;;;;;;;;;;;;;;;;;;5073322;28;19928;-65
2023/07/05 06:28:04;;;;;;;;;;;;;;;;;;5067168;28;19970;-65
2023/07/05 06:30:30;;;;;;;;;;;;;;;;;;5057776;28;20007;-64
2023/07/05 06:32:56;;;;;;;;;;;;;;;;;;5073628;28;19920;-64
2023/07/05 06:35:22;;;;;;;;;;;;;;;;;;5072636;28;19920;-64
2023/07/05 06:37:48;;;;;;;;;;;;;;;;;;5075221;28;19939;-64
2023/07/05 06:40:14;;;;;;;;;;;;;;;;;;5092540;28;19934;-64
2023/07/05 06:42:40;;;;;;;;;;;;;;;;;;5072051;28;19921;-64
2023/07/05 06:45:06;;;;;;;;;;;;;;;;;;5067496;28;19920;-64
2023/07/05 06:47:32;;;;;;;;;;;;;;;;;;5072790;28;19924;-64
2023/07/05 06:49:57;;;;;;;;;;;;;;;;;;5069349;28;19924;-64
2023/07/05 06:52:23;;;;;;;;;;;;;;;;;;5070858;28;20334;-64
2023/07/05 06:54:49;;;;;;;;;;;;;;;;;;5073282;28;19920;-64
2023/07/05 06:57:15;;;;;;;;;;;;;;;;;;5070332;28;19929;-64
2023/07/05 06:59:44;;;;;;;;;;;;;;;;;;5068563;28;19932;-64
2023/07/05 07:02:10;;;;;;;;;;;;;;;;;;5067553;28;19935;-64
2023/07/05 07:04:36;;;;;;;;;;;;;;;;;;5070728;28;20033;-64
2023/07/05 07:07:02;;;;;;;;;;;;;;;;;;5064031;28;20054;-64
2023/07/05 07:09:28;;;;;;;;;;;;;;;;;;5070714;28;19921;-64
2023/07/05 07:11:54;;;;;;;;;;;;;;;;;;5070014;28;19931;-64
2023/07/05 07:14:20;;;;;;;;;;;;;;;;;;5067151;28;19921;-66
2023/07/05 07:16:46;;;;;;;;;;;;;;;;;;5068268;28;19931;-66
2023/07/05 07:19:12;;;;;;;;;;;;;;;;;;5069282;28;19927;-66
2023/07/05 07:21:38;;;;;;;;;;;;;;;;;;5065565;28;19925;-66
2023/07/05 07:24:04;;;;;;;;;;;;;;;;;;5068380;28;19943;-66
2023/07/05 07:26:30;;;;;;;;;;;;;;;;;;5067236;28;19971;-66
2023/07/05 07:28:56;;;;;;;;;;;;;;;;;;5067478;28;19927;-65
2023/07/05 07:31:22;;;;;;;;;;;;;;;;;;5059716;28;20358;-66
2023/07/05 07:33:48;;;;;;;;;;;;;;;;;;5065999;28;19924;-66
2023/07/05 07:36:14;;;;;;;;;;;;;;;;;;5069993;28;19967;-65
2023/07/05 07:38:39;;;;;;;;;;;;;;;;;;5068340;28;19920;-66
2023/07/05 07:41:05;;;;;;;;;;;;;;;;;;5070669;28;19921;-65
2023/07/05 07:43:31;;;;;;;;;;;;;;;;;;5070689;28;20429;-65
2023/07/05 07:45:57;;;;;;;;;;;;;;;;;;5069053;28;19925;-66
2023/07/05 07:48:23;;;;;;;;;;;;;;;;;;5070046;28;20301;-65
2023/07/05 07:50:49;;;;;;;;;;;;;;;;;;5064558;28;19956;-65
2023/07/05 07:53:15;;;;;;;;;;;;;;;;;;5064105;28;20427;-65
2023/07/05 07:55:41;;;;;;;;;;;;;;;;;;5065281;28;20003;-65
2023/07/05 07:58:08;;;;;;;;;;;;;;;;;;5067907;28;19924;-66
2023/07/05 08:00:34;;;;;;;;;;;;;;;;;;5068199;28;19928;-65
2023/07/05 08:02:59;;;;;;;;;;;;;;;;;;5070732;28;19973;-66
2023/07/05 08:05:26;;;;;;;;;;;;;;;;;;5071243;28;19968;-66
2023/07/05 08:07:51;;;;;;;;;;;;;;;;;;5063882;28;19966;-66
2023/07/05 08:10:17;;;;;;;;;;;;;;;;;;5066778;28;19996;-65
2023/07/05 08:12:43;;;;;;;;;;;;;;;;;;5061767;28;19920;-66
2023/07/05 08:15:09;;;;;;;;;;;;;;;;;;5061157;28;20273;-65
2023/07/05 08:17:35;;;;;;;;;;;;;;;;;;5059968;28;19929;-65
2023/07/05 08:20:01;;;;;;;;;;;;;;;;;;5069550;28;20007;-65
2023/07/05 08:22:27;;;;;;;;;;;;;;;;;;5069090;28;19925;-65
2023/07/05 08:24:53;;;;;;;;;;;;;;;;;;5066084;28;19935;-65
2023/07/05 08:27:19;;;;;;;;;;;;;;;;;;5066579;28;19924;-65
2023/07/05 08:29:45;;;;;;;;;;;;;;;;;;5053112;28;19966;-65
2023/07/05 08:32:11;;;;;;;;;;;;;;;;;;5068356;28;19920;-65
2023/07/05 08:34:37;;;;;;;;;;;;;;;;;;5069199;28;20321;-65
2023/07/05 08:37:03;;;;;;;;;;;;;;;;;;5065145;28;20524;-64
2023/07/05 08:39:30;;;;;;;;;;;;;;;;;;5059059;28;19921;-64
2023/07/05 08:41:56;;;;;;;;;;;;;;;;;;5066879;28;20612;-65
2023/07/05 08:44:22;;;;;;;;;;;;;;;;;;5064043;28;19928;-65
2023/07/05 08:46:48;;;;;;;;;;;;;;;;;;5063178;28;19967;-65
2023/07/05 08:49:13;;;;;;;;;;;;;;;;;;5065326;28;19932;-64
2023/07/05 08:51:39;;;;;;;;;;;;;;;;;;5069864;28;20583;-65
2023/07/05 08:54:10;;;;;;;;;;;;;;;;;;5062193;28;19955;-65
2023/07/05 08:56:36;;;;;;;;;;;;;;;;;;5064624;28;19927;-65
2023/07/05 08:59:01;;;;;;;;;;;;;;;;;;5069377;28;19925;-65
2023/07/05 09:01:27;;;;;;;;;;;;;;;;;;5064492;28;19920;-65
2023/07/05 09:03:53;;;;;;;;;;;;;;;;;;5071196;28;19971;-65
2023/07/05 09:06:20;;;;;;;;;;;;;;;;;;5068303;28;20539;-65
2023/07/05 09:08:48;;;;;;;;;;;;;;;;;;5063831;28;19929;-64
2023/07/05 09:11:14;;;;;;;;;;;;;;;;;;5064172;28;19928;-64
2023/07/05 09:13:40;;;;;;;;;;;;;;;;;;5067277;28;19928;-65
2023/07/05 09:16:05;;;;;;;;;;;;;;;;;;5062228;28;19920;-64
2023/07/05 09:18:31;;;;;;;;;;;;;;;;;;5081816;28;19923;-64
2023/07/05 09:20:57;;;;;;;;;;;;;;;;;;5065362;28;19959;-64
2023/07/05 09:23:23;;;;;;;;;;;;;;;;;;5072342;28;20011;-64
2023/07/05 09:25:49;;;;;;;;;;;;;;;;;;5062495;28;19931;-64
2023/07/05 09:28:15;;;;;;;;;;;;;;;;;;5063516;28;20040;-64
2023/07/05 09:30:41;;;;;;;;;;;;;;;;;;5066286;28;20045;-64
2023/07/05 09:33:07;;;;;;;;;;;;;;;;;;5071134;28;19920;-64
2023/07/05 09:35:33;;;;;;;;;;;;;;;;;;5071673;28;19920;-64
2023/07/05 09:37:59;;;;;;;;;;;;;;;;;;5069326;28;19925;-65
2023/07/05 09:40:25;;;;;;;;;;;;;;;;;;5069063;28;20041;-64
2023/07/05 09:42:51;;;;;;;;;;;;;;;;;;5073248;28;19981;-64
2023/07/05 09:45:17;;;;;;;;;;;;;;;;;;5063691;28;20033;-64
2023/07/05 09:47:43;;;;;;;;;;;;;;;;;;5072520;28;19924;-65
2023/07/05 09:50:09;;;;;;;;;;;;;;;;;;5069721;28;19927;-65
2023/07/05 09:52:34;;;;;;;;;;;;;;;;;;5067667;28;20373;-65
2023/07/05 09:55:00;;;;;;;;;;;;;;;;;;5061062;28;19920;-65
2023/07/05 09:57:27;;;;;;;;;;;;;;;;;;5063285;28;19952;-64
2023/07/05 09:59:53;;;;;;;;;;;;;;;;;;5065723;28;20381;-65
2023/07/05 10:02:19;;;;;;;;;;;;;;;;;;5059449;28;20005;-65
2023/07/05 10:04:45;;;;;;;;;;;;;;;;;;5063319;28;21633;-65
2023/07/05 10:07:11;;;;;;;;;;;;;;;;;;5068497;28;20201;-65
2023/07/05 10:09:37;;;;;;;;;;;;;;;;;;5065504;28;20055;-65
2023/07/05 10:12:05;;;;;;;;;;;;;;;;;;5072075;28;19946;-65
2023/07/05 10:14:32;;;;;;;;;;;;;;;;;;5068429;28;19920;-65
2023/07/05 10:16:58;;;;;;;;;;;;;;;;;;5067513;28;19920;-65
2023/07/05 10:19:24;;;;;;;;;;;;;;;;;;5064546;28;19938;-65
2023/07/05 10:21:50;;;;;;;;;;;;;;;;;;4985693;28;2115924;-65
2023/07/05 10:24:16;;;;;;;;;;;;;;;;;;5068221;28;19935;-65
2023/07/05 10:26:42;;;;;;;;;;;;;;;;;;5060463;28;19928;-65
2023/07/05 10:29:07;;;;;;;;;;;;;;;;;;5064029;28;19943;-66
2023/07/05 10:31:33;;;;;;;;;;;;;;;;;;5068050;28;20160;-65
2023/07/05 10:34:01;;;;;;;;;;;;;;;;;;5068700;28;19951;-65
2023/07/05 10:36:27;;;;;;;;;;;;;;;;;;5071591;28;19924;-65
2023/07/05 10:38:54;;;;;;;;;;;;;;;;;;5069797;28;19973;-65
2023/07/05 10:41:21;;;;;;;;;;;;;;;;;;5072484;28;19925;-65
2023/07/05 10:43:46;;;;;;;;;;;;;;;;;;5069459;28;20286;-65
2023/07/05 10:46:12;;;;;;;;;;;;;;;;;;5069678;28;19971;-66
2023/07/05 10:48:40;;;;;;;;;;;;;;;;;;5071392;28;20019;-65
2023/07/05 10:51:05;;;;;;;;;;;;;;;;;;5065382;28;19925;-61
2023/07/05 10:53:31;;;;;;;;;;;;;;;;;;5073389;28;19928;-60
2023/07/05 10:55:57;;;;;;;;;;;;;;;;;;5071754;28;20310;-60
2023/07/05 10:58:23;;;;;;;;;;;;;;;;;;5071093;28;19928;-60
2023/07/05 11:00:49;;;;;;;;;;;;;;;;;;5067786;28;19977;-61
2023/07/05 11:03:15;;;;;;;;;;;;;;;;;;5068865;28;20393;-60
2023/07/05 11:05:41;;;;;;;;;;;;;;;;;;5071281;28;19928;-61
2023/07/05 11:08:07;;;;;;;;;;;;;;;;;;5061998;28;20518;-61
2023/07/05 11:10:33;;;;;;;;;;;;;;;;;;5063896;28;19977;-61
2023/07/05 11:12:59;;;;;;;;;;;;;;;;;;5064973;28;19925;-61
2023/07/05 11:15:25;;;;;;;;;;;;;;;;;;5060143;28;19947;-60
2023/07/05 11:17:51;;;;;;;;;;;;;;;;;;5071532;28;19981;-61
2023/07/05 11:20:18;;;;;;;;;;;;;;;;;;5069885;28;20003;-61
2023/07/05 11:22:44;;;;;;;;;;;;;;;;;;5088726;22;20028;-62
2023/07/05 11:25:09;;;;;;;;;;;;;;;;;;5088119;28;20328;-62
2023/07/05 11:27:36;;;;;;;;;;;;;;;;;;5086526;28;19977;-62
2023/07/05 11:30:03;;;;;;;;;;;;;;;;;;5086548;28;20307;-63
2023/07/05 11:32:29;;;;;;;;;;;;;;;;;;5087017;28;19927;-62
2023/07/05 11:34:55;;;;;;;;;;;;;;;;;;5086239;28;20199;-62
2023/07/05 11:37:20;;;;;;;;;;;;;;;;;;5085094;28;20341;-62
2023/07/05 11:39:46;;;;;;;;;;;;;;;;;;5082837;28;20315;-62
2023/07/05 11:42:12;;;;;;;;;;;;;;;;;;5086628;28;19973;-62
2023/07/05 11:44:38;;;;;;;;;;;;;;;;;;5089642;28;20389;-63
2023/07/05 11:47:04;;;;;;;;;;;;;;;;;;5091974;28;19967;-62
2023/07/05 11:49:30;;;;;;;;;;;;;;;;;;5090157;28;19920;-62
2023/07/05 11:51:57;;;;;;;;;;;;;;;;;;5081946;28;19920;-63
2023/07/05 11:54:23;;;;;;;;;;;;;;;;;;5090862;28;19924;-63
2023/07/05 11:56:48;;;;;;;;;;;;;;;;;;5091216;28;19920;-62
2023/07/05 11:59:14;;;;;;;;;;;;;;;;;;5092169;28;20031;-62
2023/07/05 12:01:41;;;;;;;;;;;;;;;;;;5090568;28;19928;-63
2023/07/05 12:04:07;;;;;;;;;;;;;;;;;;5090753;28;19920;-63
2023/07/05 12:06:33;;;;;;;;;;;;;;;;;;5085601;28;20325;-62
2023/07/05 12:08:59;;;;;;;;;;;;;;;;;;5071676;28;19920;-62
2023/07/05 12:11:24;;;;;;;;;;;;;;;;;;5053364;28;19932;-61
2023/07/05 12:13:50;;;;;;;;;;;;;;;;;;5079918;28;19920;-61
2023/07/05 12:16:16;;;;;;;;;;;;;;;;;;5086376;28;19927;-62
2023/07/05 12:18:42;;;;;;;;;;;;;;;;;;5088088;28;20010;-61
2023/07/05 12:21:08;;;;;;;;;;;;;;;;;;5086488;28;19928;-62
2023/07/05 12:23:34;;;;;;;;;;;;;;;;;;5073253;28;19920;-61
2023/07/05 12:26:01;;;;;;;;;;;;;;;;;;5091575;28;19931;-62
2023/07/05 12:28:27;;;;;;;;;;;;;;;;;;5087256;28;19928;-61
2023/07/05 12:30:53;;;;;;;;;;;;;;;;;;5083575;28;19980;-62
2023/07/05 12:33:19;;;;;;;;;;;;;;;;;;5089795;28;19920;-61
2023/07/05 12:35:45;;;;;;;;;;;;;;;;;;5088203;28;19924;-61
2023/07/05 12:38:11;;;;;;;;;;;;;;;;;;5087252;28;21753;-61
2023/07/05 12:40:37;;;;;;;;;;;;;;;;;;5087054;28;19924;-61
2023/07/05 12:43:03;;;;;;;;;;;;;;;;;;5088595;28;19920;-61
2023/07/05 12:45:29;;;;;;;;;;;;;;;;;;5085136;28;19928;-61
2023/07/05 12:47:55;;;;;;;;;;;;;;;;;;5090021;28;19931;-61
2023/07/05 12:50:21;;;;;;;;;;;;;;;;;;5085002;28;19924;-61
2023/07/05 12:52:47;;;;;;;;;;;;;;;;;;5087842;28;19935;-61
2023/07/05 12:55:13;;;;;;;;;;;;;;;;;;5088044;28;20369;-62
2023/07/05 12:57:39;;;;;;;;;;;;;;;;;;5086718;28;19920;-61
2023/07/05 13:00:10;;;;;;;;;;;;;;;;;;5084046;28;19967;-61
2023/07/05 13:02:36;;;;;;;;;;;;;;;;;;5085908;28;19981;-61
2023/07/05 13:05:03;;;;;;;;;;;;;;;;;;5089591;28;20010;-62
2023/07/05 13:07:32;;;;;;;;;;;;;;;;;;5088655;28;19924;-61
2023/07/05 13:09:58;;;;;;;;;;;;;;;;;;5086947;28;20316;-62
2023/07/05 13:12:24;;;;;;;;;;;;;;;;;;5093704;28;19927;-62
2023/07/05 13:14:50;;;;;;;;;;;;;;;;;;5091980;28;19920;-62
2023/07/05 13:17:17;;;;;;;;;;;;;;;;;;5094298;28;19924;-62
2023/07/05 13:19:43;;;;;;;;;;;;;;;;;;5090807;28;20406;-61
2023/07/05 13:22:09;;;;;;;;;;;;;;;;;;5083851;28;19924;-61
2023/07/05 13:24:38;;;;;;;;;;;;;;;;;;5085583;28;20124;-62
2023/07/05 13:27:03;;;;;;;;;;;;;;;;;;5072925;28;19981;-61
2023/07/05 13:29:29;;;;;;;;;;;;;;;;;;5092310;28;19924;-61
2023/07/05 13:31:55;;;;;;;;;;;;;;;;;;5090708;28;19927;-61
2023/07/05 13:34:21;;;;;;;;;;;;;;;;;;5092296;28;19931;-62
2023/07/05 13:36:47;;;;;;;;;;;;;;;;;;5091974;28;19923;-61
2023/07/05 13:39:13;;;;;;;;;;;;;;;;;;5092160;28;19920;-61
2023/07/05 13:41:39;;;;;;;;;;;;;;;;;;5094187;28;19927;-62
2023/07/05 13:44:05;;;;;;;;;;;;;;;;;;5092717;28;19963;-61
2023/07/05 13:46:31;;;;;;;;;;;;;;;;;;5093846;28;19975;-61
2023/07/05 13:48:57;;;;;;;;;;;;;;;;;;5092437;28;19920;-61
2023/07/05 13:51:23;;;;;;;;;;;;;;;;;;5089646;28;20316;-61
2023/07/05 13:53:49;;;;;;;;;;;;;;;;;;5093898;28;19950;-61
2023/07/05 13:56:15;;;;;;;;;;;;;;;;;;5093441;28;19932;-61
2023/07/05 13:58:41;;;;;;;;;;;;;;;;;;5091897;28;19920;-61
2023/07/05 14:01:07;;;;;;;;;;;;;;;;;;5090242;28;20003;-61
2023/07/05 14:03:33;;;;;;;;;;;;;;;;;;5086424;28;20612;-61
2023/07/05 14:05:59;;;;;;;;;;;;;;;;;;5091706;28;19924;-62
2023/07/05 14:08:26;;;;;;;;;;;;;;;;;;5091994;28;19929;-61
2023/07/05 14:10:52;;;;;;;;;;;;;;;;;;5093656;28;20562;-61
2023/07/05 14:13:20;;;;;;;;;;;;;;;;;;5088484;28;19978;-61
2023/07/05 14:15:46;;;;;;;;;;;;;;;;;;5089667;28;20149;-62
2023/07/05 14:18:12;;;;;;;;;;;;;;;;;;5093578;28;20002;-61
2023/07/05 14:20:38;;;;;;;;;;;;;;;;;;5093449;28;20383;-61
2023/07/05 14:23:04;;;;;;;;;;;;;;;;;;5093151;28;19925;-61
2023/07/05 14:25:31;;;;;;;;;;;;;;;;;;5093346;28;19931;-61
2023/07/05 14:27:57;;;;;;;;;;;;;;;;;;5090775;28;20373;-62
2023/07/05 14:30:23;;;;;;;;;;;;;;;;;;5087177;28;19935;-61
2023/07/05 14:32:49;;;;;;;;;;;;;;;;;;5093260;28;19925;-61
2023/07/05 14:35:15;;;;;;;;;;;;;;;;;;5092153;28;20293;-61
2023/07/05 14:37:41;;;;;;;;;;;;;;;;;;5092830;28;19920;-62
2023/07/05 14:40:07;;;;;;;;;;;;;;;;;;5092154;28;19924;-61
2023/07/05 14:42:33;;;;;;;;;;;;;;;;;;5092077;28;19930;-62
2023/07/05 14:44:59;;;;;;;;;;;;;;;;;;5093239;28;20365;-62
2023/07/05 14:47:25;;;;;;;;;;;;;;;;;;5092521;28;19985;-62
2023/07/05 14:49:51;;;;;;;;;;;;;;;;;;5092693;28;19967;-62
2023/07/05 14:52:17;;;;;;;;;;;;;;;;;;5092877;28;19924;-61
2023/07/05 14:54:43;;;;;;;;;;;;;;;;;;5092013;28;19920;-61
2023/07/05 14:57:08;;;;;;;;;;;;;;;;;;5089939;28;19924;-62
2023/07/05 14:59:34;;;;;;;;;;;;;;;;;;5092877;28;20347;-62
2023/07/05 15:02:00;;;;;;;;;;;;;;;;;;5092952;28;19928;-62
2023/07/05 15:04:26;;;;;;;;;;;;;;;;;;5081875;28;19981;-62
2023/07/05 15:06:52;;;;;;;;;;;;;;;;;;5080235;28;19924;-62
2023/07/05 15:09:21;;;;;;;;;;;;;;;;;;5089209;28;19955;-62
2023/07/05 15:11:47;;;;;;;;;;;;;;;;;;5090010;28;19999;-62
2023/07/05 15:14:12;;;;;;;;;;;;;;;;;;5078407;28;19931;-62
2023/07/05 15:16:39;;;;;;;;;;;;;;;;;;5082734;28;20291;-62
2023/07/05 15:19:04;;;;;;;;;;;;;;;;;;5077847;28;19926;-62
2023/07/05 15:21:30;;;;;;;;;;;;;;;;;;5079716;28;20011;-62
2023/07/05 15:23:56;;;;;;;;;;;;;;;;;;5088902;28;19924;-63
2023/07/05 15:26:22;;;;;;;;;;;;;;;;;;5086221;28;19924;-62
2023/07/05 15:28:48;;;;;;;;;;;;;;;;;;5086172;28;19977;-62
2023/07/05 15:31:15;;;;;;;;;;;;;;;;;;5089297;28;20011;-62
2023/07/05 15:33:41;;;;;;;;;;;;;;;;;;5090391;28;19926;-63
2023/07/05 15:36:07;;;;;;;;;;;;;;;;;;5078997;28;20388;-62
2023/07/05 15:38:33;;;;;;;;;;;;;;;;;;5089285;28;20011;-62
2023/07/05 15:40:59;;;;;;;;;;;;;;;;;;5091178;28;19920;-62
2023/07/05 15:43:25;;;;;;;;;;;;;;;;;;5082209;28;19931;-63
2023/07/05 15:45:51;;;;;;;;;;;;;;;;;;5087078;28;19924;-63
2023/07/05 15:48:17;;;;;;;;;;;;;;;;;;5083625;28;19966;-63
2023/07/05 15:50:42;;;;;;;;;;;;;;;;;;5087038;28;20015;-62
2023/07/05 15:53:09;;;;;;;;;;;;;;;;;;5078190;28;19942;-62
2023/07/05 15:55:35;;;;;;;;;;;;;;;;;;5077146;28;19928;-63
2023/07/05 15:58:05;;;;;;;;;;;;;;;;;;5089234;28;19931;-63
2023/07/05 16:00:36;;;;;;;;;;;;;;;;;;5082300;28;19927;-63
2023/07/05 16:03:03;;;;;;;;;;;;;;;;;;5089963;28;19924;-62
2023/07/05 16:05:29;;;;;;;;;;;;;;;;;;5086838;28;19931;-63
2023/07/05 16:07:54;;;;;;;;;;;;;;;;;;5086956;28;19928;-63
2023/07/05 16:10:20;;;;;;;;;;;;;;;;;;5081523;28;19943;-63
2023/07/05 16:12:48;;;;;;;;;;;;;;;;;;5088335;28;19924;-63
2023/07/05 16:15:14;;;;;;;;;;;;;;;;;;5081947;28;19924;-63
2023/07/05 16:17:40;;;;;;;;;;;;;;;;;;5084031;28;19962;-63
2023/07/05 16:20:06;;;;;;;;;;;;;;;;;;5088864;28;19962;-63
2023/07/05 16:22:32;;;;;;;;;;;;;;;;;;5082835;28;20317;-63
2023/07/05 16:24:58;;;;;;;;;;;;;;;;;;5076538;28;19928;-63
2023/07/05 16:27:24;;;;;;;;;;;;;;;;;;5075481;28;20436;-63
2023/07/05 16:29:50;;;;;;;;;;;;;;;;;;5076229;28;19920;-62
2023/07/05 16:32:16;;;;;;;;;;;;;;;;;;5076857;28;20389;-63
2023/07/05 16:34:41;;;;;;;;;;;;;;;;;;5074329;28;20070;-63
2023/07/05 16:37:07;;;;;;;;;;;;;;;;;;5077393;28;20434;-63